sensor_id;sensor_type;location;lat;lon;timestamp;temperature;humidity
51837;DHT22;38941;53.254;6.600;2023-07-20T00:00:19;16.60;99.90
51837;DHT22;38941;53.254;6.600;2023-07-20T00:02:20;16.60;99.90
51837;DHT22;38941;53.254;6.600;2023-07-20T00:04:21;16.60;99.90
51837;DHT22;38941;53.254;6.600;2023-07-20T00:06:23;16.60;99.90
51837;DHT22;38941;53.254;6.600;2023-07-20T00:08:25;16.60;99.90
51837;DHT22;38941;53.254;6.600;2023-07-20T00:10:25;16.60;99.90
51837;DHT22;38941;53.254;6.600;2023-07-20T00:12:26;16.60;99.90
51837;DHT22;38941;53.254;6.600;2023-07-20T00:14:27;16.60;99.90
51837;DHT22;38941;53.254;6.600;2023-07-20T00:16:27;16.60;99.90
51837;DHT22;38941;53.254;6.600;2023-07-20T00:18:28;16.60;99.90
51837;DHT22;38941;53.254;6.600;2023-07-20T00:20:29;16.60;99.90
51837;DHT22;38941;53.254;6.600;2023-07-20T00:22:30;16.60;99.90
51837;DHT22;38941;53.254;6.600;2023-07-20T00:24:31;16.50;99.90
51837;DHT22;38941;53.254;6.600;2023-07-20T00:26:33;16.50;99.90
51837;DHT22;38941;53.254;6.600;2023-07-20T00:28:33;16.50;99.90
51837;DHT22;38941;53.254;6.600;2023-07-20T00:30:34;16.50;99.90
51837;DHT22;38941;53.254;6.600;2023-07-20T00:32:34;16.40;99.90
51837;DHT22;38941;53.254;6.600;2023-07-20T00:34:35;16.40;99.90
51837;DHT22;38941;53.254;6.600;2023-07-20T00:36:36;16.40;99.90
51837;DHT22;38941;53.254;6.600;2023-07-20T00:38:37;16.40;99.90
51837;DHT22;38941;53.254;6.600;2023-07-20T00:40:38;16.30;99.90
51837;DHT22;38941;53.254;6.600;2023-07-20T00:42:39;16.30;99.90
51837;DHT22;38941;53.254;6.600;2023-07-20T00:44:40;16.30;99.90
51837;DHT22;38941;53.254;6.600;2023-07-20T00:46:40;16.30;99.90
51837;DHT22;38941;53.254;6.600;2023-07-20T00:48:42;16.30;99.90
51837;DHT22;38941;53.254;6.600;2023-07-20T00:50:43;16.30;99.90
51837;DHT22;38941;53.254;6.600;2023-07-20T00:52:45;16.20;99.90
51837;DHT22;38941;53.254;6.600;2023-07-20T00:54:47;16.20;99.90
51837;DHT22;38941;53.254;6.600;2023-07-20T00:56:48;16.10;99.90
51837;DHT22;38941;53.254;6.600;2023-07-20T01:00:50;16.10;99.90
51837;DHT22;38941;53.254;6.600;2023-07-20T01:02:51;16.00;99.90
51837;DHT22;38941;53.254;6.600;2023-07-20T01:04:52;15.90;99.90
51837;DHT22;38941;53.254;6.600;2023-07-20T01:09:11;15.80;99.90
51837;DHT22;38941;53.254;6.600;2023-07-20T01:11:28;15.80;99.90
51837;DHT22;38941;53.254;6.600;2023-07-20T01:13:33;15.70;99.90
51837;DHT22;38941;53.254;6.600;2023-07-20T01:15:34;15.70;99.90
51837;DHT22;38941;53.254;6.600;2023-07-20T01:17:35;15.60;99.90
51837;DHT22;38941;53.254;6.600;2023-07-20T01:19:36;15.60;99.90
51837;DHT22;38941;53.254;6.600;2023-07-20T01:21:51;15.60;99.90
51837;DHT22;38941;53.254;6.600;2023-07-20T01:26:33;15.50;99.90
51837;DHT22;38941;53.254;6.600;2023-07-20T01:32:58;15.40;99.90
51837;DHT22;38941;53.254;6.600;2023-07-20T01:34:59;15.30;99.90
51837;DHT22;38941;53.254;6.600;2023-07-20T01:37:03;15.30;99.90
51837;DHT22;38941;53.254;6.600;2023-07-20T01:39:04;15.20;99.90
51837;DHT22;38941;53.254;6.600;2023-07-20T01:41:06;15.20;99.90
51837;DHT22;38941;53.254;6.600;2023-07-20T01:43:07;15.20;99.90
51837;DHT22;38941;53.254;6.600;2023-07-20T01:45:08;15.10;99.90
51837;DHT22;38941;53.254;6.600;2023-07-20T01:47:09;15.10;99.90
51837;DHT22;38941;53.254;6.600;2023-07-20T01:49:09;15.10;99.90
51837;DHT22;38941;53.254;6.600;2023-07-20T01:51:10;15.00;99.90
51837;DHT22;38941;53.254;6.600;2023-07-20T01:53:12;15.00;99.90
51837;DHT22;38941;53.254;6.600;2023-07-20T01:55:13;15.00;99.90
51837;DHT22;38941;53.254;6.600;2023-07-20T01:57:14;14.90;99.90
51837;DHT22;38941;53.254;6.600;2023-07-20T01:59:14;14.90;99.90
51837;DHT22;38941;53.254;6.600;2023-07-20T02:01:15;14.80;99.90
51837;DHT22;38941;53.254;6.600;2023-07-20T02:03:16;14.80;99.90
51837;DHT22;38941;53.254;6.600;2023-07-20T02:05:17;14.80;99.90
51837;DHT22;38941;53.254;6.600;2023-07-20T02:07:17;14.80;99.90
51837;DHT22;38941;53.254;6.600;2023-07-20T02:09:18;14.70;99.90
51837;DHT22;38941;53.254;6.600;2023-07-20T02:11:20;14.70;99.90
51837;DHT22;38941;53.254;6.600;2023-07-20T02:13:21;14.70;99.90
51837;DHT22;38941;53.254;6.600;2023-07-20T02:15:22;14.70;99.90
51837;DHT22;38941;53.254;6.600;2023-07-20T02:17:23;14.60;99.90
51837;DHT22;38941;53.254;6.600;2023-07-20T02:19:25;14.60;99.90
51837;DHT22;38941;53.254;6.600;2023-07-20T02:21:25;14.60;99.90
51837;DHT22;38941;53.254;6.600;2023-07-20T02:23:26;14.60;99.90
51837;DHT22;38941;53.254;6.600;2023-07-20T02:25:27;14.60;99.90
51837;DHT22;38941;53.254;6.600;2023-07-20T02:27:27;14.60;99.90
51837;DHT22;38941;53.254;6.600;2023-07-20T02:29:28;14.50;99.90
51837;DHT22;38941;53.254;6.600;2023-07-20T02:31:29;14.50;99.90
51837;DHT22;38941;53.254;6.600;2023-07-20T02:33:30;14.50;99.90
51837;DHT22;38941;53.254;6.600;2023-07-20T02:35:30;14.50;99.90
51837;DHT22;38941;53.254;6.600;2023-07-20T02:37:32;14.40;99.90
51837;DHT22;38941;53.254;6.600;2023-07-20T02:39:33;14.40;99.90
51837;DHT22;38941;53.254;6.600;2023-07-20T02:41:33;14.40;99.90
51837;DHT22;38941;53.254;6.600;2023-07-20T02:43:34;14.40;99.90
51837;DHT22;38941;53.254;6.600;2023-07-20T02:45:35;14.40;99.90
51837;DHT22;38941;53.254;6.600;2023-07-20T02:47:40;14.50;99.90
51837;DHT22;38941;53.254;6.600;2023-07-20T02:49:41;14.30;99.90
51837;DHT22;38941;53.254;6.600;2023-07-20T02:51:42;14.30;99.90
51837;DHT22;38941;53.254;6.600;2023-07-20T02:53:43;14.30;99.90
51837;DHT22;38941;53.254;6.600;2023-07-20T02:55:44;14.30;99.90
51837;DHT22;38941;53.254;6.600;2023-07-20T02:57:44;14.30;99.90
51837;DHT22;38941;53.254;6.600;2023-07-20T02:59:45;14.20;99.90
51837;DHT22;38941;53.254;6.600;2023-07-20T03:01:47;14.20;99.90
51837;DHT22;38941;53.254;6.600;2023-07-20T03:03:47;14.10;99.90
51837;DHT22;38941;53.254;6.600;2023-07-20T03:05:48;14.10;99.90
51837;DHT22;38941;53.254;6.600;2023-07-20T03:07:55;14.10;99.90
51837;DHT22;38941;53.254;6.600;2023-07-20T03:09:56;14.10;99.90
51837;DHT22;38941;53.254;6.600;2023-07-20T03:11:57;14.10;99.90
51837;DHT22;38941;53.254;6.600;2023-07-20T03:13:58;14.10;99.90
51837;DHT22;38941;53.254;6.600;2023-07-20T03:15:58;14.10;99.90
51837;DHT22;38941;53.254;6.600;2023-07-20T03:17:59;14.10;99.90
51837;DHT22;38941;53.254;6.600;2023-07-20T03:20:00;14.10;99.90
51837;DHT22;38941;53.254;6.600;2023-07-20T03:22:01;14.00;99.90
51837;DHT22;38941;53.254;6.600;2023-07-20T03:24:01;14.00;99.90
51837;DHT22;38941;53.254;6.600;2023-07-20T03:26:02;14.00;99.90
51837;DHT22;38941;53.254;6.600;2023-07-20T03:28:03;14.00;99.90
51837;DHT22;38941;53.254;6.600;2023-07-20T03:30:04;14.00;99.90
51837;DHT22;38941;53.254;6.600;2023-07-20T03:32:07;13.90;99.90
51837;DHT22;38941;53.254;6.600;2023-07-20T03:34:08;13.90;99.90
51837;DHT22;38941;53.254;6.600;2023-07-20T03:36:09;13.80;99.90
51837;DHT22;38941;53.254;6.600;2023-07-20T03:38:10;13.80;99.90
51837;DHT22;38941;53.254;6.600;2023-07-20T03:40:11;13.80;99.90
51837;DHT22;38941;53.254;6.600;2023-07-20T03:42:12;13.80;99.90
51837;DHT22;38941;53.254;6.600;2023-07-20T03:44:12;13.80;99.90
51837;DHT22;38941;53.254;6.600;2023-07-20T03:46:13;13.70;99.90
51837;DHT22;38941;53.254;6.600;2023-07-20T03:48:16;13.70;99.90
51837;DHT22;38941;53.254;6.600;2023-07-20T03:50:17;13.60;99.90
51837;DHT22;38941;53.254;6.600;2023-07-20T03:52:18;13.60;99.90
51837;DHT22;38941;53.254;6.600;2023-07-20T03:54:18;13.60;99.90
51837;DHT22;38941;53.254;6.600;2023-07-20T03:56:19;13.60;99.90
51837;DHT22;38941;53.254;6.600;2023-07-20T03:58:20;13.60;99.90
51837;DHT22;38941;53.254;6.600;2023-07-20T04:00:22;13.60;99.90
51837;DHT22;38941;53.254;6.600;2023-07-20T04:02:22;13.60;99.90
51837;DHT22;38941;53.254;6.600;2023-07-20T04:04:23;13.60;99.90
51837;DHT22;38941;53.254;6.600;2023-07-20T04:06:24;13.60;99.90
51837;DHT22;38941;53.254;6.600;2023-07-20T04:08:24;13.60;99.90
51837;DHT22;38941;53.254;6.600;2023-07-20T04:10:25;13.60;99.90
51837;DHT22;38941;53.254;6.600;2023-07-20T04:12:27;13.60;99.90
51837;DHT22;38941;53.254;6.600;2023-07-20T04:14:27;13.60;99.90
51837;DHT22;38941;53.254;6.600;2023-07-20T04:16:28;13.60;99.90
51837;DHT22;38941;53.254;6.600;2023-07-20T04:18:29;13.70;99.90
51837;DHT22;38941;53.254;6.600;2023-07-20T04:20:29;13.70;99.90
51837;DHT22;38941;53.254;6.600;2023-07-20T04:22:30;13.80;99.90
51837;DHT22;38941;53.254;6.600;2023-07-20T04:24:31;13.80;99.90
51837;DHT22;38941;53.254;6.600;2023-07-20T04:26:32;13.80;99.90
51837;DHT22;38941;53.254;6.600;2023-07-20T04:28:32;13.90;99.90
51837;DHT22;38941;53.254;6.600;2023-07-20T04:30:37;13.90;99.90
51837;DHT22;38941;53.254;6.600;2023-07-20T04:32:39;13.90;99.90
51837;DHT22;38941;53.254;6.600;2023-07-20T04:34:46;13.90;99.90
51837;DHT22;38941;53.254;6.600;2023-07-20T04:36:47;13.90;99.90
51837;DHT22;38941;53.254;6.600;2023-07-20T04:38:47;13.90;99.90
51837;DHT22;38941;53.254;6.600;2023-07-20T04:40:49;14.00;99.90
51837;DHT22;38941;53.254;6.600;2023-07-20T04:42:50;14.00;99.90
51837;DHT22;38941;53.254;6.600;2023-07-20T04:44:50;14.10;99.90
51837;DHT22;38941;53.254;6.600;2023-07-20T04:46:51;14.10;99.90
51837;DHT22;38941;53.254;6.600;2023-07-20T04:48:52;14.10;99.90
51837;DHT22;38941;53.254;6.600;2023-07-20T04:50:52;14.10;99.90
51837;DHT22;38941;53.254;6.600;2023-07-20T04:52:53;14.10;99.90
51837;DHT22;38941;53.254;6.600;2023-07-20T04:54:54;14.10;99.90
51837;DHT22;38941;53.254;6.600;2023-07-20T04:56:54;14.10;99.90
51837;DHT22;38941;53.254;6.600;2023-07-20T04:58:55;14.20;99.90
51837;DHT22;38941;53.254;6.600;2023-07-20T05:00:59;14.20;99.90
51837;DHT22;38941;53.254;6.600;2023-07-20T05:03:00;14.20;99.90
51837;DHT22;38941;53.254;6.600;2023-07-20T05:05:00;14.30;99.90
51837;DHT22;38941;53.254;6.600;2023-07-20T05:07:02;14.30;99.90
51837;DHT22;38941;53.254;6.600;2023-07-20T05:09:03;14.40;99.90
51837;DHT22;38941;53.254;6.600;2023-07-20T05:11:04;14.40;99.90
51837;DHT22;38941;53.254;6.600;2023-07-20T05:13:04;14.40;99.90
51837;DHT22;38941;53.254;6.600;2023-07-20T05:15:05;14.50;99.90
51837;DHT22;38941;53.254;6.600;2023-07-20T05:17:06;14.60;99.90
51837;DHT22;38941;53.254;6.600;2023-07-20T05:19:07;14.60;99.90
51837;DHT22;38941;53.254;6.600;2023-07-20T05:21:08;14.60;99.90
51837;DHT22;38941;53.254;6.600;2023-07-20T05:23:08;14.70;99.90
51837;DHT22;38941;53.254;6.600;2023-07-20T05:25:10;14.70;99.90
51837;DHT22;38941;53.254;6.600;2023-07-20T05:27:12;14.80;99.90
51837;DHT22;38941;53.254;6.600;2023-07-20T05:29:13;14.90;99.90
51837;DHT22;38941;53.254;6.600;2023-07-20T05:31:14;14.90;99.90
51837;DHT22;38941;53.254;6.600;2023-07-20T05:33:15;15.00;99.90
51837;DHT22;38941;53.254;6.600;2023-07-20T05:35:15;15.10;99.90
51837;DHT22;38941;53.254;6.600;2023-07-20T05:37:17;15.10;99.90
51837;DHT22;38941;53.254;6.600;2023-07-20T05:39:18;15.20;99.90
51837;DHT22;38941;53.254;6.600;2023-07-20T05:41:18;15.20;99.90
51837;DHT22;38941;53.254;6.600;2023-07-20T05:43:19;15.30;99.90
51837;DHT22;38941;53.254;6.600;2023-07-20T05:45:20;15.30;99.90
51837;DHT22;38941;53.254;6.600;2023-07-20T05:47:21;15.40;99.90
51837;DHT22;38941;53.254;6.600;2023-07-20T05:49:21;15.50;99.90
51837;DHT22;38941;53.254;6.600;2023-07-20T05:51:22;15.50;99.90
51837;DHT22;38941;53.254;6.600;2023-07-20T05:53:23;15.60;99.90
51837;DHT22;38941;53.254;6.600;2023-07-20T05:55:27;15.60;99.90
51837;DHT22;38941;53.254;6.600;2023-07-20T05:57:28;15.70;99.90
51837;DHT22;38941;53.254;6.600;2023-07-20T05:59:28;15.70;99.90
51837;DHT22;38941;53.254;6.600;2023-07-20T06:01:32;15.80;99.90
51837;DHT22;38941;53.254;6.600;2023-07-20T06:03:35;15.90;99.90
51837;DHT22;38941;53.254;6.600;2023-07-20T06:05:35;16.00;99.90
51837;DHT22;38941;53.254;6.600;2023-07-20T06:07:37;16.00;99.90
51837;DHT22;38941;53.254;6.600;2023-07-20T06:09:37;16.10;99.90
51837;DHT22;38941;53.254;6.600;2023-07-20T06:11:39;15.90;99.90
51837;DHT22;38941;53.254;6.600;2023-07-20T06:13:40;16.30;99.90
51837;DHT22;38941;53.254;6.600;2023-07-20T06:15:40;16.30;99.90
51837;DHT22;38941;53.254;6.600;2023-07-20T06:17:41;16.40;99.90
51837;DHT22;38941;53.254;6.600;2023-07-20T06:19:42;16.50;99.90
51837;DHT22;38941;53.254;6.600;2023-07-20T06:21:43;16.60;99.90
51837;DHT22;38941;53.254;6.600;2023-07-20T06:23:44;16.70;99.90
51837;DHT22;38941;53.254;6.600;2023-07-20T06:25:45;16.80;99.90
51837;DHT22;38941;53.254;6.600;2023-07-20T06:27:46;16.80;99.90
51837;DHT22;38941;53.254;6.600;2023-07-20T06:31:54;16.90;99.90
51837;DHT22;38941;53.254;6.600;2023-07-20T06:33:55;17.00;99.90
51837;DHT22;38941;53.254;6.600;2023-07-20T06:35:56;17.00;99.90
51837;DHT22;38941;53.254;6.600;2023-07-20T06:37:59;17.10;99.90
51837;DHT22;38941;53.254;6.600;2023-07-20T06:40:05;17.20;99.90
51837;DHT22;38941;53.254;6.600;2023-07-20T06:42:07;17.30;99.90
51837;DHT22;38941;53.254;6.600;2023-07-20T06:44:07;17.40;99.90
51837;DHT22;38941;53.254;6.600;2023-07-20T06:46:09;17.40;99.90
51837;DHT22;38941;53.254;6.600;2023-07-20T06:48:10;17.50;99.90
51837;DHT22;38941;53.254;6.600;2023-07-20T06:50:11;17.60;99.90
51837;DHT22;38941;53.254;6.600;2023-07-20T06:52:11;17.60;99.90
51837;DHT22;38941;53.254;6.600;2023-07-20T06:54:12;17.70;99.90
51837;DHT22;38941;53.254;6.600;2023-07-20T06:56:13;17.70;99.90
51837;DHT22;38941;53.254;6.600;2023-07-20T06:58:16;17.80;99.90
51837;DHT22;38941;53.254;6.600;2023-07-20T07:00:17;17.90;99.90
51837;DHT22;38941;53.254;6.600;2023-07-20T07:02:18;18.00;99.90
51837;DHT22;38941;53.254;6.600;2023-07-20T07:04:18;18.10;99.90
51837;DHT22;38941;53.254;6.600;2023-07-20T07:06:19;18.20;99.90
51837;DHT22;38941;53.254;6.600;2023-07-20T07:08:21;18.40;99.90
51837;DHT22;38941;53.254;6.600;2023-07-20T07:10:22;18.50;99.90
51837;DHT22;38941;53.254;6.600;2023-07-20T07:12:22;18.60;99.90
51837;DHT22;38941;53.254;6.600;2023-07-20T07:14:23;18.70;99.90
51837;DHT22;38941;53.254;6.600;2023-07-20T07:16:24;18.80;99.90
51837;DHT22;38941;53.254;6.600;2023-07-20T07:18:24;18.90;99.90
51837;DHT22;38941;53.254;6.600;2023-07-20T07:20:26;19.00;99.90
51837;DHT22;38941;53.254;6.600;2023-07-20T07:22:28;19.00;99.90
51837;DHT22;38941;53.254;6.600;2023-07-20T07:24:29;19.10;99.90
51837;DHT22;38941;53.254;6.600;2023-07-20T07:26:34;19.20;99.90
51837;DHT22;38941;53.254;6.600;2023-07-20T07:28:34;19.30;99.90
51837;DHT22;38941;53.254;6.600;2023-07-20T07:30:35;19.40;99.90
51837;DHT22;38941;53.254;6.600;2023-07-20T07:32:36;19.60;99.90
51837;DHT22;38941;53.254;6.600;2023-07-20T07:34:37;19.80;99.90
51837;DHT22;38941;53.254;6.600;2023-07-20T07:40:40;20.00;99.90
51837;DHT22;38941;53.254;6.600;2023-07-20T07:42:41;20.60;99.90
51837;DHT22;38941;53.254;6.600;2023-07-20T07:44:42;20.60;99.90
51837;DHT22;38941;53.254;6.600;2023-07-20T07:46:44;20.60;99.90
51837;DHT22;38941;53.254;6.600;2023-07-20T07:48:44;20.50;99.90
51837;DHT22;38941;53.254;6.600;2023-07-20T07:50:45;20.40;99.90
51837;DHT22;38941;53.254;6.600;2023-07-20T07:52:46;20.20;99.90
51837;DHT22;38941;53.254;6.600;2023-07-20T07:54:48;20.10;99.90
51837;DHT22;38941;53.254;6.600;2023-07-20T07:56:48;19.90;99.90
51837;DHT22;38941;53.254;6.600;2023-07-20T07:58:50;19.90;99.90
51837;DHT22;38941;53.254;6.600;2023-07-20T08:00:53;20.20;99.90
51837;DHT22;38941;53.254;6.600;2023-07-20T08:31:14;20.40;99.90
51837;DHT22;38941;53.254;6.600;2023-07-20T09:59:04;21.60;99.90
51837;DHT22;38941;53.254;6.600;2023-07-20T10:01:07;24.10;92.60
51837;DHT22;38941;53.254;6.600;2023-07-20T10:03:18;23.70;92.90
51837;DHT22;38941;53.254;6.600;2023-07-20T10:05:19;23.70;92.10
51837;DHT22;38941;53.254;6.600;2023-07-20T10:07:22;23.90;92.50
51837;DHT22;38941;53.254;6.600;2023-07-20T10:09:27;24.20;92.70
51837;DHT22;38941;53.254;6.600;2023-07-20T10:11:35;24.80;92.70
51837;DHT22;38941;53.254;6.600;2023-07-20T10:13:38;25.30;92.50
51837;DHT22;38941;53.254;6.600;2023-07-20T10:15:54;25.30;91.50
51837;DHT22;38941;53.254;6.600;2023-07-20T10:20:06;24.80;91.30
51837;DHT22;38941;53.254;6.600;2023-07-20T10:22:12;24.80;91.80
51837;DHT22;38941;53.254;6.600;2023-07-20T10:24:13;25.00;91.00
51837;DHT22;38941;53.254;6.600;2023-07-20T10:26:14;25.30;91.50
51837;DHT22;38941;53.254;6.600;2023-07-20T10:30:18;25.70;91.30
51837;DHT22;38941;53.254;6.600;2023-07-20T10:32:20;26.20;90.80
51837;DHT22;38941;53.254;6.600;2023-07-20T10:34:21;26.00;90.00
51837;DHT22;38941;53.254;6.600;2023-07-20T10:36:26;25.80;89.00
51837;DHT22;38941;53.254;6.600;2023-07-20T10:38:39;25.40;88.30
51837;DHT22;38941;53.254;6.600;2023-07-20T10:40:40;25.40;89.10
51837;DHT22;38941;53.254;6.600;2023-07-20T10:42:41;25.60;89.40
51837;DHT22;38941;53.254;6.600;2023-07-20T10:44:44;25.90;89.00
51837;DHT22;38941;53.254;6.600;2023-07-20T10:46:47;26.30;87.80
51837;DHT22;38941;53.254;6.600;2023-07-20T10:49:04;26.60;87.20
51837;DHT22;38941;53.254;6.600;2023-07-20T10:51:20;26.70;83.50
51837;DHT22;38941;53.254;6.600;2023-07-20T10:53:21;27.00;85.40
51837;DHT22;38941;53.254;6.600;2023-07-20T10:55:22;27.00;84.90
51837;DHT22;38941;53.254;6.600;2023-07-20T10:57:24;27.20;83.80
51837;DHT22;38941;53.254;6.600;2023-07-20T11:01:36;27.70;82.40
51837;DHT22;38941;53.254;6.600;2023-07-20T11:03:38;27.90;80.40
51837;DHT22;38941;53.254;6.600;2023-07-20T11:05:41;27.90;81.60
51837;DHT22;38941;53.254;6.600;2023-07-20T11:07:43;28.00;80.40
51837;DHT22;38941;53.254;6.600;2023-07-20T11:09:43;28.10;79.10
51837;DHT22;38941;53.254;6.600;2023-07-20T11:11:48;28.30;78.20
51837;DHT22;38941;53.254;6.600;2023-07-20T11:14:00;28.60;75.60
51837;DHT22;38941;53.254;6.600;2023-07-20T11:16:02;28.60;72.70
51837;DHT22;38941;53.254;6.600;2023-07-20T11:18:16;28.80;74.60
51837;DHT22;38941;53.254;6.600;2023-07-20T11:20:16;29.10;74.50
51837;DHT22;38941;53.254;6.600;2023-07-20T11:22:17;29.30;74.50
51837;DHT22;38941;53.254;6.600;2023-07-20T11:24:18;29.30;73.30
51837;DHT22;38941;53.254;6.600;2023-07-20T11:26:19;29.30;73.00
51837;DHT22;38941;53.254;6.600;2023-07-20T11:28:19;29.40;73.30
51837;DHT22;38941;53.254;6.600;2023-07-20T11:30:21;29.50;71.90
51837;DHT22;38941;53.254;6.600;2023-07-20T11:32:23;29.60;72.50
51837;DHT22;38941;53.254;6.600;2023-07-20T11:34:24;29.50;72.50
51837;DHT22;38941;53.254;6.600;2023-07-20T11:36:25;30.80;72.70
51837;DHT22;38941;53.254;6.600;2023-07-20T11:38:25;29.60;71.80
51837;DHT22;38941;53.254;6.600;2023-07-20T11:40:26;29.70;70.30
51837;DHT22;38941;53.254;6.600;2023-07-20T11:42:27;29.60;70.10
51837;DHT22;38941;53.254;6.600;2023-07-20T11:44:29;29.60;69.10
51837;DHT22;38941;53.254;6.600;2023-07-20T11:46:29;29.70;68.40
51837;DHT22;38941;53.254;6.600;2023-07-20T11:48:31;29.90;68.80
51837;DHT22;38941;53.254;6.600;2023-07-20T11:50:32;29.80;66.50
51837;DHT22;38941;53.254;6.600;2023-07-20T11:52:38;29.60;66.10
51837;DHT22;38941;53.254;6.600;2023-07-20T11:54:39;29.30;66.40
51837;DHT22;38941;53.254;6.600;2023-07-20T11:56:41;29.30;66.90
51837;DHT22;38941;53.254;6.600;2023-07-20T11:58:46;29.30;66.60
51837;DHT22;38941;53.254;6.600;2023-07-20T12:00:48;29.30;66.50
51837;DHT22;38941;53.254;6.600;2023-07-20T12:02:48;29.50;66.10
51837;DHT22;38941;53.254;6.600;2023-07-20T12:04:49;29.90;67.10
51837;DHT22;38941;53.254;6.600;2023-07-20T12:06:50;30.20;66.00
51837;DHT22;38941;53.254;6.600;2023-07-20T12:08:57;30.20;64.80
51837;DHT22;38941;53.254;6.600;2023-07-20T12:10:58;29.90;64.40
51837;DHT22;38941;53.254;6.600;2023-07-20T12:13:02;29.70;65.30
51837;DHT22;38941;53.254;6.600;2023-07-20T12:15:32;29.80;64.50
51837;DHT22;38941;53.254;6.600;2023-07-20T12:17:33;30.00;62.90
51837;DHT22;38941;53.254;6.600;2023-07-20T12:19:38;30.30;64.40
51837;DHT22;38941;53.254;6.600;2023-07-20T12:21:40;30.60;62.30
51837;DHT22;38941;53.254;6.600;2023-07-20T12:23:42;30.80;63.00
51837;DHT22;38941;53.254;6.600;2023-07-20T12:25:47;30.80;62.90
51837;DHT22;38941;53.254;6.600;2023-07-20T12:27:48;30.80;63.40
51837;DHT22;38941;53.254;6.600;2023-07-20T12:29:50;30.80;62.00
51837;DHT22;38941;53.254;6.600;2023-07-20T12:31:52;30.70;61.50
51837;DHT22;38941;53.254;6.600;2023-07-20T12:33:53;30.50;61.40
51837;DHT22;38941;53.254;6.600;2023-07-20T12:35:57;30.20;61.20
51837;DHT22;38941;53.254;6.600;2023-07-20T12:37:59;30.30;61.60
51837;DHT22;38941;53.254;6.600;2023-07-20T12:40:00;29.50;61.00
51837;DHT22;38941;53.254;6.600;2023-07-20T12:42:02;29.00;60.60
51837;DHT22;38941;53.254;6.600;2023-07-20T12:44:02;28.70;61.20
51837;DHT22;38941;53.254;6.600;2023-07-20T12:46:03;28.40;61.80
51837;DHT22;38941;53.254;6.600;2023-07-20T12:48:04;28.20;62.20
51837;DHT22;38941;53.254;6.600;2023-07-20T12:50:05;27.90;62.50
51837;DHT22;38941;53.254;6.600;2023-07-20T12:52:07;27.60;62.50
51837;DHT22;38941;53.254;6.600;2023-07-20T12:54:08;27.50;63.30
51837;DHT22;38941;53.254;6.600;2023-07-20T12:56:09;27.20;63.60
51837;DHT22;38941;53.254;6.600;2023-07-20T12:58:11;27.10;65.80
51837;DHT22;38941;53.254;6.600;2023-07-20T13:00:13;27.00;65.30
51837;DHT22;38941;53.254;6.600;2023-07-20T13:02:14;26.90;66.30
51837;DHT22;38941;53.254;6.600;2023-07-20T13:04:15;26.90;67.20
51837;DHT22;38941;53.254;6.600;2023-07-20T13:06:15;26.90;66.90
51837;DHT22;38941;53.254;6.600;2023-07-20T13:08:16;27.00;66.90
51837;DHT22;38941;53.254;6.600;2023-07-20T13:10:17;26.80;66.30
51837;DHT22;38941;53.254;6.600;2023-07-20T13:12:17;26.60;66.40
51837;DHT22;38941;53.254;6.600;2023-07-20T13:14:18;26.50;66.60
51837;DHT22;38941;53.254;6.600;2023-07-20T13:16:19;26.40;66.90
51837;DHT22;38941;53.254;6.600;2023-07-20T13:18:19;26.30;67.10
51837;DHT22;38941;53.254;6.600;2023-07-20T13:20:20;26.10;66.90
51837;DHT22;38941;53.254;6.600;2023-07-20T13:22:20;26.00;67.10
51837;DHT22;38941;53.254;6.600;2023-07-20T13:24:21;25.80;67.20
51837;DHT22;38941;53.254;6.600;2023-07-20T13:26:22;25.50;67.10
51837;DHT22;38941;53.254;6.600;2023-07-20T13:28:23;25.30;67.20
51837;DHT22;38941;53.254;6.600;2023-07-20T13:30:23;25.10;67.60
51837;DHT22;38941;53.254;6.600;2023-07-20T13:32:24;24.90;67.80
51837;DHT22;38941;53.254;6.600;2023-07-20T13:34:25;24.70;68.60
51837;DHT22;38941;53.254;6.600;2023-07-20T13:36:26;26.20;70.70
51837;DHT22;38941;53.254;6.600;2023-07-20T13:38:27;24.60;71.00
51837;DHT22;38941;53.254;6.600;2023-07-20T13:40:27;24.60;71.40
51837;DHT22;38941;53.254;6.600;2023-07-20T13:42:28;24.60;71.20
51837;DHT22;38941;53.254;6.600;2023-07-20T13:44:29;24.70;70.60
51837;DHT22;38941;53.254;6.600;2023-07-20T13:46:30;24.60;69.30
51837;DHT22;38941;53.254;6.600;2023-07-20T13:48:30;24.50;70.50
51837;DHT22;38941;53.254;6.600;2023-07-20T13:50:31;24.40;70.40
51837;DHT22;38941;53.254;6.600;2023-07-20T13:52:32;24.30;70.00
51837;DHT22;38941;53.254;6.600;2023-07-20T13:54:32;24.40;69.60
51837;DHT22;38941;53.254;6.600;2023-07-20T13:56:33;24.50;69.70
51837;DHT22;38941;53.254;6.600;2023-07-20T13:58:33;24.70;69.00
51837;DHT22;38941;53.254;6.600;2023-07-20T14:00:34;24.80;69.40
51837;DHT22;38941;53.254;6.600;2023-07-20T14:02:35;25.00;69.80
51837;DHT22;38941;53.254;6.600;2023-07-20T14:04:37;25.10;70.40
51837;DHT22;38941;53.254;6.600;2023-07-20T14:06:37;25.20;70.70
51837;DHT22;38941;53.254;6.600;2023-07-20T14:08:38;25.20;71.00
51837;DHT22;38941;53.254;6.600;2023-07-20T14:10:38;25.10;70.70
51837;DHT22;38941;53.254;6.600;2023-07-20T14:12:39;25.20;70.80
51837;DHT22;38941;53.254;6.600;2023-07-20T14:14:40;25.10;70.70
51837;DHT22;38941;53.254;6.600;2023-07-20T14:16:44;25.50;70.90
51837;DHT22;38941;53.254;6.600;2023-07-20T14:18:44;26.00;70.40
51837;DHT22;38941;53.254;6.600;2023-07-20T14:20:47;26.40;70.40
51837;DHT22;38941;53.254;6.600;2023-07-20T14:22:48;26.60;70.10
51837;DHT22;38941;53.254;6.600;2023-07-20T14:24:48;27.00;70.10
51837;DHT22;38941;53.254;6.600;2023-07-20T14:26:49;27.30;71.00
51837;DHT22;38941;53.254;6.600;2023-07-20T14:28:50;27.50;69.30
51837;DHT22;38941;53.254;6.600;2023-07-20T14:30:50;27.60;69.20
51837;DHT22;38941;53.254;6.600;2023-07-20T14:32:51;27.60;68.50
51837;DHT22;38941;53.254;6.600;2023-07-20T14:34:52;27.40;67.80
51837;DHT22;38941;53.254;6.600;2023-07-20T14:36:53;27.30;68.10
51837;DHT22;38941;53.254;6.600;2023-07-20T14:38:54;27.50;68.60
51837;DHT22;38941;53.254;6.600;2023-07-20T14:40:55;27.70;67.60
51837;DHT22;38941;53.254;6.600;2023-07-20T14:42:56;28.10;67.80
51837;DHT22;38941;53.254;6.600;2023-07-20T14:44:58;28.20;67.70
51837;DHT22;38941;53.254;6.600;2023-07-20T14:46:59;28.10;66.60
51837;DHT22;38941;53.254;6.600;2023-07-20T14:49:00;28.00;66.50
51837;DHT22;38941;53.254;6.600;2023-07-20T14:51:00;28.00;67.10
51837;DHT22;38941;53.254;6.600;2023-07-20T14:53:01;27.90;67.40
51837;DHT22;38941;53.254;6.600;2023-07-20T14:55:02;27.60;67.20
51837;DHT22;38941;53.254;6.600;2023-07-20T14:57:03;27.50;67.40
51837;DHT22;38941;53.254;6.600;2023-07-20T14:59:08;27.50;67.80
51837;DHT22;38941;53.254;6.600;2023-07-20T15:01:08;27.70;67.20
51837;DHT22;38941;53.254;6.600;2023-07-20T15:03:09;27.80;67.80
51837;DHT22;38941;53.254;6.600;2023-07-20T15:05:10;27.80;68.10